createdAt,value
2023-02-05T00:00:22.129Z,70.90
2023-02-05T00:02:48.780Z,71.40
2023-02-05T00:05:15.573Z,71.33
2023-02-05T00:07:42.431Z,72.10
2023-02-05T00:10:09.276Z,71.69
2023-02-05T00:12:36.062Z,71.13
2023-02-05T00:15:02.830Z,71.83
2023-02-05T00:17:29.417Z,70.98
2023-02-05T00:19:56.760Z,71.72
2023-02-05T00:22:23.314Z,71.79
2023-02-05T00:24:49.974Z,71.87
2023-02-05T00:27:16.672Z,72.11
2023-02-05T00:29:43.324Z,72.52
2023-02-05T00:32:10.368Z,71.31
2023-02-05T00:34:36.960Z,71.66
2023-02-05T00:37:03.655Z,71.38
2023-02-05T00:39:30.301Z,71.50
2023-02-05T00:41:57.094Z,71.59
2023-02-05T00:44:23.657Z,71.62
2023-02-05T00:46:50.314Z,71.84
2023-02-05T00:49:16.855Z,72.00
2023-02-05T00:51:44.541Z,71.56
2023-02-05T00:54:11.202Z,72.35
2023-02-05T00:56:37.867Z,73.08
2023-02-05T00:59:04.657Z,72.36
2023-02-05T01:01:31.347Z,72.19
2023-02-05T01:03:58.058Z,72.68
2023-02-05T01:06:26.727Z,73.18
2023-02-05T01:08:53.594Z,73.25
2023-02-05T01:11:20.484Z,72.30
2023-02-05T01:13:47.185Z,72.98
2023-02-05T01:16:14.193Z,73.67
2023-02-05T01:18:40.861Z,73.18
2023-02-05T01:21:07.480Z,73.60
2023-02-05T01:23:33.970Z,73.06
2023-02-05T01:26:01.083Z,73.76
2023-02-05T01:28:27.716Z,73.82
2023-02-05T01:30:54.852Z,73.51
2023-02-05T01:33:21.505Z,73.51
2023-02-05T01:35:50.564Z,73.62
2023-02-05T01:38:20.591Z,73.35
2023-02-05T01:40:47.594Z,73.37
2023-02-05T01:43:18.813Z,74.27
2023-02-05T01:46:05.740Z,74.19
2023-02-05T01:48:41.736Z,74.74
2023-02-05T01:51:13.898Z,75.16
2023-02-05T01:53:42.881Z,74.02
2023-02-05T01:56:17.318Z,75.04
2023-02-05T01:59:09.562Z,75.41
2023-02-05T02:01:47.098Z,75.07
2023-02-05T02:04:24.972Z,77.38
2023-02-05T02:06:54.337Z,74.70
2023-02-05T02:09:26.180Z,76.85
2023-02-05T02:12:08.796Z,76.08
2023-02-05T02:14:42.360Z,77.90
2023-02-05T02:17:10.415Z,78.13
2023-02-05T02:19:43.060Z,77.17
2023-02-05T02:22:30.735Z,77.25
2023-02-05T02:25:35.387Z,78.15
2023-02-05T02:28:26.985Z,76.46
2023-02-05T02:30:56.886Z,75.89
2023-02-05T02:33:31.992Z,74.98
2023-02-05T02:36:31.026Z,76.20
2023-02-05T02:39:23.510Z,75.71
2023-02-05T02:42:04.558Z,76.11
2023-02-05T02:44:44.946Z,74.63
2023-02-05T02:47:26.424Z,75.37
2023-02-05T02:50:01.554Z,75.45
2023-02-05T02:52:33.464Z,74.56
2023-02-05T02:55:05.624Z,74.78
2023-02-05T02:57:35.236Z,74.72
2023-02-05T03:00:10.751Z,74.99
2023-02-05T03:02:43.965Z,74.37
2023-02-05T03:05:18.322Z,75.29
2023-02-05T03:07:51.274Z,74.87
2023-02-05T03:10:25.735Z,74.39
2023-02-05T03:12:52.943Z,74.68
2023-02-05T03:15:19.675Z,74.97
2023-02-05T03:17:46.601Z,74.26
2023-02-05T03:20:23.051Z,74.98
2023-02-05T03:22:49.950Z,74.48
2023-02-05T03:25:20.211Z,75.01
2023-02-05T03:27:47.605Z,74.75
2023-02-05T03:30:15.302Z,74.98
2023-02-05T03:32:55.892Z,76.12
2023-02-05T03:35:41.945Z,74.66
2023-02-05T03:38:27.302Z,75.04
2023-02-05T03:41:15.941Z,75.19
2023-02-05T03:44:00.690Z,74.80
2023-02-05T03:46:41.118Z,75.37
2023-02-05T03:49:23.581Z,75.12
2023-02-05T03:52:02.219Z,75.78
2023-02-05T03:55:20.119Z,75.66
2023-02-05T03:57:56.642Z,74.77
2023-02-05T04:00:25.026Z,75.11
2023-02-05T04:02:51.856Z,74.54
2023-02-05T04:05:24.386Z,75.15
2023-02-05T04:07:51.720Z,74.46
2023-02-05T04:10:19.626Z,75.06
2023-02-05T04:12:46.204Z,75.18
2023-02-05T04:15:13.226Z,74.76
2023-02-05T04:17:40.171Z,75.00
2023-02-05T04:20:07.820Z,75.48
2023-02-05T04:22:34.410Z,75.14
2023-02-05T04:25:01.074Z,74.89
2023-02-05T04:27:27.708Z,74.81
2023-02-05T04:29:54.292Z,75.12
2023-02-05T04:32:21.017Z,74.82
2023-02-05T04:34:47.630Z,74.88
2023-02-05T04:37:14.282Z,74.53
2023-02-05T04:39:40.968Z,74.98
2023-02-05T04:42:07.625Z,74.69
2023-02-05T04:44:34.130Z,74.82
2023-02-05T04:47:00.708Z,74.94
2023-02-05T04:49:27.324Z,74.44
2023-02-05T04:51:54.175Z,74.04
2023-02-05T04:54:20.793Z,74.22
2023-02-05T04:56:47.338Z,74.37
2023-02-05T04:59:13.949Z,73.61
2023-02-05T05:01:40.754Z,73.94
2023-02-05T05:04:07.236Z,73.84
2023-02-05T05:06:34.011Z,73.50
2023-02-05T05:09:00.662Z,73.44
2023-02-05T05:11:27.449Z,73.50
2023-02-05T05:13:54.479Z,73.55
2023-02-05T05:16:21.074Z,73.23
2023-02-05T05:18:47.754Z,73.65
2023-02-05T05:21:14.284Z,73.16
2023-02-05T05:23:40.878Z,73.02
2023-02-05T05:26:09.410Z,74.05
2023-02-05T05:28:36.798Z,73.38
2023-02-05T05:31:16.922Z,73.92
2023-02-05T05:33:43.606Z,73.56
2023-02-05T05:36:11.559Z,73.98
2023-02-05T05:38:38.566Z,74.27
2023-02-05T05:41:24.190Z,73.81
2023-02-05T05:43:54.024Z,74.39
2023-02-05T05:46:26.750Z,74.39
2023-02-05T05:48:55.659Z,73.78
2023-02-05T05:51:23.791Z,74.24
2023-02-05T05:53:50.519Z,73.76
2023-02-05T05:56:18.110Z,74.50
2023-02-05T05:58:45.652Z,73.97
2023-02-05T06:01:13.796Z,73.74
2023-02-05T06:03:40.720Z,72.98
2023-02-05T06:06:10.401Z,74.23
2023-02-05T06:08:36.982Z,73.90
2023-02-05T06:11:03.738Z,74.30
2023-02-05T06:13:30.458Z,73.76
2023-02-05T06:15:57.223Z,73.70
2023-02-05T06:18:24.465Z,73.67
2023-02-05T06:20:51.571Z,73.18
2023-02-05T06:23:18.443Z,74.36
2023-02-05T06:25:45.190Z,73.63
2023-02-05T06:28:11.910Z,73.91
2023-02-05T06:30:38.799Z,74.21
2023-02-05T06:33:05.726Z,73.70
2023-02-05T06:35:32.665Z,73.87
2023-02-05T06:37:59.405Z,72.85
2023-02-05T06:40:29.547Z,73.10
2023-02-05T06:43:06.216Z,73.31
2023-02-05T06:45:33.251Z,73.53
2023-02-05T06:48:02.295Z,72.69
2023-02-05T06:50:30.564Z,73.16
2023-02-05T06:52:57.605Z,72.55
2023-02-05T06:55:39.299Z,71.89
2023-02-05T06:58:09.049Z,72.70
2023-02-05T07:00:39.729Z,73.26
2023-02-05T07:03:06.342Z,72.59
2023-02-05T07:05:34.771Z,72.71
2023-02-05T07:08:04.008Z,72.27
2023-02-05T07:10:30.717Z,72.08
2023-02-05T07:12:57.733Z,71.86
2023-02-05T07:15:24.546Z,72.19
2023-02-05T07:17:51.255Z,71.91
2023-02-05T07:20:18.837Z,72.42
2023-02-05T07:22:47.202Z,71.59
2023-02-05T07:25:13.882Z,71.81
2023-02-05T07:27:42.291Z,72.01
2023-02-05T07:30:32.153Z,71.48
2023-02-05T07:33:00.770Z,71.72
2023-02-05T07:35:38.961Z,71.44
2023-02-05T07:38:06.237Z,71.72
2023-02-05T07:40:38.834Z,71.21
2023-02-05T07:43:05.594Z,71.48
2023-02-05T07:45:37.419Z,71.09
2023-02-05T07:48:10.443Z,70.15
2023-02-05T07:51:16.718Z,70.89
2023-02-05T07:54:47.689Z,70.96
2023-02-05T07:57:08.384Z,71.66
2023-02-05T08:03:06.165Z,70.31
2023-02-05T08:05:42.979Z,70.81
2023-02-05T08:09:27.465Z,70.68
2023-02-05T08:12:05.150Z,70.31
2023-02-05T08:14:41.267Z,70.69
2023-02-05T08:17:34.050Z,69.97
2023-02-05T08:20:17.191Z,71.14
2023-02-05T08:22:55.703Z,69.86
2023-02-05T08:25:25.274Z,70.05
2023-02-05T08:27:54.780Z,71.29
2023-02-05T08:30:30.730Z,71.04
2023-02-05T08:33:13.852Z,70.63
2023-02-05T08:35:59.311Z,69.94
2023-02-05T08:38:25.897Z,70.00
2023-02-05T08:40:52.698Z,70.02
2023-02-05T08:43:19.346Z,70.66
2023-02-05T08:45:54.260Z,69.95
2023-02-05T08:48:21.910Z,70.05
2023-02-05T08:50:48.954Z,69.84
2023-02-05T08:53:15.576Z,70.42
2023-02-05T08:55:43.050Z,70.89
2023-02-05T08:58:11.746Z,70.05
2023-02-05T09:00:41.884Z,68.05
2023-02-05T09:03:09.006Z,68.46
2023-02-05T09:05:37.696Z,70.13
2023-02-05T09:08:04.709Z,70.21
2023-02-05T09:10:37.284Z,69.10
2023-02-05T09:13:33.461Z,69.81
2023-02-05T09:15:58.146Z,69.67
2023-02-05T09:18:27.961Z,70.05
2023-02-05T09:21:01.220Z,68.86
2023-02-05T09:23:28.331Z,68.84
2023-02-05T09:25:59.481Z,69.11
2023-02-05T09:28:28.908Z,68.74
2023-02-05T09:31:42.209Z,68.44
2023-02-05T09:37:46.422Z,68.97
2023-02-05T09:40:48.782Z,68.18
2023-02-05T09:51:45.035Z,68.40
2023-02-05T10:01:28.075Z,68.27
2023-02-05T10:04:03.200Z,67.37
2023-02-05T10:07:02.659Z,67.72
2023-02-05T10:10:44.262Z,67.80
2023-02-05T10:13:38.645Z,66.36
2023-02-05T10:16:30.378Z,65.73
2023-02-05T10:23:18.742Z,67.20
2023-02-05T10:26:15.601Z,66.48
2023-02-05T10:28:51.135Z,65.40
2023-02-05T10:31:29.945Z,64.41
2023-02-05T10:34:27.865Z,64.13
2023-02-05T10:36:54.534Z,65.51
2023-02-05T10:39:25.584Z,65.72
2023-02-05T10:42:11.960Z,63.81
2023-02-05T10:44:45.214Z,64.36
2023-02-05T10:47:15.263Z,65.29
2023-02-05T10:49:57.299Z,64.13
2023-02-05T10:52:26.897Z,64.69
2023-02-05T10:54:53.928Z,64.90
2023-02-05T10:57:23.625Z,64.24
2023-02-05T11:00:11.814Z,62.45
2023-02-05T11:02:41.607Z,63.56
2023-02-05T11:05:46.363Z,60.65
2023-02-05T11:08:39.018Z,61.27
2023-02-05T11:11:11.723Z,61.54
2023-02-05T11:13:42.432Z,60.43
2023-02-05T11:16:09.714Z,61.15
2023-02-05T11:18:40.333Z,61.33
2023-02-05T11:21:11.560Z,62.29
2023-02-05T11:23:40.196Z,61.43
2023-02-05T11:26:23.878Z,60.07
2023-02-05T11:28:53.359Z,60.77
2023-02-05T11:31:34.869Z,58.92
2023-02-05T11:34:14.971Z,59.62
2023-02-05T11:36:54.513Z,59.96
2023-02-05T11:39:37.125Z,57.55
2023-02-05T11:42:21.743Z,59.53
2023-02-05T11:45:02.291Z,57.15
2023-02-05T11:47:41.131Z,58.97
2023-02-05T11:50:24.591Z,57.65
2023-02-05T11:52:52.841Z,58.27
2023-02-05T11:55:33.097Z,56.29
2023-02-05T11:58:10.467Z,57.03
2023-02-05T12:01:55.872Z,53.09
2023-02-05T12:04:46.857Z,58.27
2023-02-05T12:07:28.734Z,57.89
2023-02-05T12:10:09.131Z,59.04
2023-02-05T12:14:03.201Z,55.67
2023-02-05T12:16:36.060Z,58.17
2023-02-05T12:19:35.616Z,57.52
2023-02-05T12:22:29.666Z,57.19
2023-02-05T12:25:08.427Z,56.60
2023-02-05T12:27:53.919Z,54.77
2023-02-05T12:30:57.680Z,56.67
2023-02-05T12:33:43.433Z,55.89
2023-02-05T12:36:35.946Z,55.05
2023-02-05T12:39:39.841Z,55.55
2023-02-05T12:42:18.506Z,56.32
2023-02-05T12:44:56.598Z,54.61
2023-02-05T12:47:56.265Z,55.97
2023-02-05T12:51:04.962Z,55.65
2023-02-05T12:53:52.400Z,56.02
2023-02-05T12:56:37.315Z,54.90
2023-02-05T12:59:32.119Z,55.61
2023-02-05T13:05:57.371Z,55.21
2023-02-05T13:08:51.686Z,52.83
2023-02-05T13:11:29.837Z,55.29
2023-02-05T13:14:05.932Z,55.31
2023-02-05T13:16:55.369Z,52.39
2023-02-05T13:19:46.288Z,53.27
2023-02-05T13:22:58.414Z,51.96
2023-02-05T13:28:46.751Z,54.45
2023-02-05T13:31:38.737Z,52.65
2023-02-05T13:34:25.615Z,53.41
2023-02-05T13:37:29.702Z,54.99
2023-02-05T13:39:59.240Z,54.46
2023-02-05T13:43:09.014Z,53.50
2023-02-05T13:46:10.998Z,51.73
2023-02-05T13:49:31.139Z,53.36
2023-02-05T13:52:43.885Z,54.58
2023-02-05T13:55:44.276Z,53.77
2023-02-05T14:01:51.797Z,53.88
2023-02-05T14:04:53.381Z,49.44
2023-02-05T14:08:21.970Z,51.62
2023-02-05T14:10:59.617Z,53.14
2023-02-05T14:16:47.965Z,54.59
2023-02-05T14:23:58.969Z,53.86
2023-02-05T14:24:11.634Z,54.29
2023-02-05T14:27:27.868Z,53.35
2023-02-05T14:31:18.355Z,52.58
2023-02-05T14:37:54.938Z,53.54
2023-02-05T14:40:34.159Z,53.04
2023-02-05T14:43:18.172Z,52.85
2023-02-05T14:46:28.560Z,52.61
2023-02-05T14:49:30.707Z,52.08
2023-02-05T14:52:10.278Z,54.49
2023-02-05T14:54:44.820Z,53.67
2023-02-05T14:57:15.921Z,53.80
2023-02-05T15:00:04.262Z,52.54
2023-02-05T15:02:51.913Z,53.21
2023-02-05T15:06:14.743Z,52.71
2023-02-05T15:09:19.167Z,53.66
2023-02-05T15:12:08.509Z,53.80
2023-02-05T15:22:20.353Z,54.07
2023-02-05T15:24:50.234Z,55.25
2023-02-05T15:27:59.643Z,54.06
2023-02-05T15:30:48.804Z,54.27
2023-02-05T15:33:37.514Z,53.34
2023-02-05T15:37:13.842Z,53.50
2023-02-05T15:41:29.160Z,53.53
2023-02-05T15:44:02.909Z,54.01
2023-02-05T15:46:33.593Z,54.62
2023-02-05T15:49:25.526Z,53.12
2023-02-05T15:52:17.087Z,54.38
2023-02-05T15:58:53.599Z,53.91
2023-02-05T16:01:33.838Z,52.80
2023-02-05T16:04:23.348Z,52.75
2023-02-05T16:06:52.126Z,54.29
2023-02-05T16:09:33.179Z,53.45
2023-02-05T16:12:13.927Z,52.90
2023-02-05T16:14:45.200Z,54.23
2023-02-05T16:18:02.539Z,53.83
2023-02-05T16:20:42.658Z,54.60
2023-02-05T16:24:08.525Z,52.94
2023-02-05T16:27:15.144Z,53.73
2023-02-05T16:30:00.056Z,54.23
2023-02-05T16:32:39.395Z,53.83
2023-02-05T16:35:24.257Z,53.97
2023-02-05T16:38:07.600Z,54.28
2023-02-05T16:41:07.696Z,55.27
2023-02-05T16:46:46.880Z,55.11
2023-02-05T16:49:31.573Z,55.35
2023-02-05T16:53:10.337Z,55.00
2023-02-05T16:55:49.715Z,54.78
2023-02-05T17:00:37.399Z,55.56
2023-02-05T17:01:53.437Z,55.73
2023-02-05T17:07:44.656Z,55.89
2023-02-05T17:10:49.263Z,56.48
2023-02-05T17:14:34.098Z,56.60
2023-02-05T17:17:44.466Z,56.82
2023-02-05T17:27:38.870Z,56.88
2023-02-05T17:30:16.723Z,57.33
2023-02-05T17:32:52.460Z,57.74
2023-02-05T17:35:28.581Z,57.24
2023-02-05T17:45:13.082Z,58.65
2023-02-05T17:48:22.715Z,58.58
2023-02-05T17:51:07.089Z,58.42
2023-02-05T17:57:24.889Z,59.23
2023-02-05T17:59:55.186Z,58.64
2023-02-05T18:02:27.556Z,59.11
2023-02-05T18:05:24.831Z,59.48
2023-02-05T18:08:07.786Z,59.59
2023-02-05T18:11:23.952Z,61.14
2023-02-05T18:14:23.440Z,59.96
2023-02-05T18:16:53.104Z,60.25
2023-02-05T18:23:57.618Z,60.76
2023-02-05T18:26:36.928Z,60.91
2023-02-05T18:29:34.652Z,61.88
2023-02-05T18:32:47.174Z,62.72
2023-02-05T18:36:17.106Z,62.11
2023-02-05T19:00:17.002Z,63.49
2023-02-05T19:03:02.999Z,62.10
2023-02-05T19:10:10.657Z,63.59
2023-02-05T19:12:51.022Z,63.38
2023-02-05T20:26:14.166Z,67.40
2023-02-05T20:30:16.816Z,67.39
2023-02-05T22:10:38.877Z,68.43
2023-02-05T22:17:27.420Z,69.11
2023-02-05T22:26:31.975Z,70.22
2023-02-05T22:37:33.682Z,70.98
2023-02-05T22:56:50.696Z,70.72
2023-02-05T23:02:47.443Z,70.63
2023-02-05T23:05:16.375Z,70.48
2023-02-05T23:07:44.625Z,70.69
2023-02-05T23:10:31.361Z,70.71
2023-02-05T23:13:21.467Z,70.80
2023-02-05T23:15:56.607Z,70.96
2023-02-05T23:18:25.247Z,70.76
2023-02-05T23:20:54.942Z,71.09
2023-02-05T23:23:23.638Z,71.74
2023-02-05T23:25:55.446Z,71.46
2023-02-05T23:28:22.329Z,71.67
2023-02-05T23:30:51.179Z,71.51
2023-02-05T23:33:20.063Z,71.52
2023-02-05T23:35:59.976Z,71.51
2023-02-05T23:38:27.501Z,71.72
2023-02-05T23:40:55.373Z,71.89
2023-02-05T23:43:25.986Z,72.19
2023-02-05T23:46:03.854Z,71.28
2023-02-05T23:48:38.367Z,72.34
2023-02-05T23:51:06.206Z,72.04
2023-02-05T23:53:41.870Z,73.04
2023-02-05T23:56:12.063Z,72.57
2023-02-05T23:58:41.648Z,71.86
